Time;durP1;ratioP1;P1;durP2;ratioP2;P2;SDS_P1;SDS_P2;PMS_P1;PMS_P2;Temp;Humidity;BMP_temperature;BMP_pressure;BME280_temperature;BME280_humidity;BME280_pressure;Samples;Min_cycle;Max_cycle;Signal;HPM_P1;HPM_P2
2022/08/08 00:02:30;;;;;;;2.92;2.25;;;;;;;11.61;100.00;102689.66;5115898;27;20023;-69
2022/08/08 00:05:06;;;;;;;3.60;2.55;;;;;;;11.59;100.00;102691.56;5116511;28;20031;-70
2022/08/08 00:07:31;;;;;;;3.35;2.60;;;;;;;11.60;100.00;102687.94;5116433;28;20026;-70
2022/08/08 00:10:03;;;;;;;5.20;3.08;;;;;;;11.62;100.00;102687.84;5116792;28;20035;-70
2022/08/08 00:12:35;;;;;;;3.92;2.67;;;;;;;11.62;100.00;102693.19;5116292;28;20038;-70
2022/08/08 00:15:05;;;;;;;3.90;2.40;;;;;;;11.62;100.00;102693.19;5115117;28;20024;-70
2022/08/08 00:17:38;;;;;;;7.82;3.00;;;;;;;11.58;100.00;102691.66;5116049;28;20031;-70
2022/08/08 00:20:09;;;;;;;3.40;2.50;;;;;;;11.58;100.00;102694.31;5115780;28;20051;-70
2022/08/08 00:22:51;;;;;;;6.55;2.90;;;;;;;11.56;100.00;102688.25;5115874;28;20028;-70
2022/08/08 00:25:25;;;;;;;3.00;2.45;;;;;;;11.52;100.00;102689.41;5115967;28;20035;-71
2022/08/08 00:27:56;;;;;;;3.00;2.20;;;;;;;11.49;100.00;102690.44;5116126;27;20110;-70
2022/08/08 00:30:23;;;;;;;3.72;2.40;;;;;;;11.47;100.00;102684.38;5116034;28;20031;-70
2022/08/08 00:33:16;;;;;;;2.88;2.30;;;;;;;11.42;100.00;102678.47;5115745;28;20028;-70
2022/08/08 00:36:01;;;;;;;3.58;2.40;;;;;;;11.39;100.00;102671.56;5115907;28;20456;-70
2022/08/08 00:38:36;;;;;;;3.80;2.70;;;;;;;11.42;100.00;102676.69;5115756;27;20040;-70
2022/08/08 00:41:31;;;;;;;4.93;2.58;;;;;;;11.43;100.00;102672.19;5116017;28;20036;-70
2022/08/08 00:44:24;;;;;;;3.78;2.55;;;;;;;11.42;100.00;102668.69;5115998;28;20080;-71
2022/08/08 00:47:17;;;;;;;4.30;2.40;;;;;;;11.39;100.00;102670.66;5115320;28;20521;-72
2022/08/08 00:50:19;;;;;;;4.65;2.50;;;;;;;11.35;100.00;102664.69;5115565;28;20080;-69
2022/08/08 00:52:59;;;;;;;3.67;2.30;;;;;;;11.34;100.00;102665.66;5115594;28;20107;-69
2022/08/08 00:56:02;;;;;;;4.68;2.58;;;;;;;11.32;100.00;102666.72;5115188;28;20063;-70
2022/08/08 00:58:57;;;;;;;7.90;3.42;;;;;;;11.33;100.00;102671.06;5115097;28;20038;-70
2022/08/08 01:01:38;;;;;;;3.80;2.80;;;;;;;11.38;100.00;102674.31;5115389;28;20051;-69
2022/08/08 01:04:12;;;;;;;4.28;3.70;;;;;;;11.39;100.00;102668.00;5114028;28;20107;-69
2022/08/08 01:07:14;;;;;;;6.10;3.08;;;;;;;11.38;100.00;102664.50;5114830;28;20035;-69
2022/08/08 01:10:01;;;;;;;5.82;3.58;;;;;;;11.38;100.00;102675.16;5114862;28;20077;-68
2022/08/08 01:12:57;;;;;;;6.70;3.80;;;;;;;11.37;100.00;102672.59;5115119;28;20023;-69
2022/08/08 01:15:37;;;;;;;3.97;3.47;;;;;;;11.33;100.00;102673.75;5115038;28;20120;-70
2022/08/08 01:18:38;;;;;;;4.28;3.00;;;;;;;11.28;100.00;102663.38;5115416;28;20028;-70
2022/08/08 01:21:12;;;;;;;3.97;3.05;;;;;;;11.21;100.00;102659.41;5085335;28;20048;-69
2022/08/08 01:24:13;;;;;;;4.78;2.92;;;;;;;11.14;100.00;102658.94;5115137;28;20426;-70
2022/08/08 01:27:16;;;;;;;5.13;3.15;;;;;;;11.13;100.00;102659.06;5114878;28;20059;-70
2022/08/08 01:30:11;;;;;;;4.50;3.72;;;;;;;11.16;100.00;102658.84;5114553;28;20110;-69
2022/08/08 01:33:07;;;;;;;4.93;3.50;;;;;;;11.13;100.00;102661.72;5114873;28;20035;-70
2022/08/08 01:36:04;;;;;;;8.98;3.17;;;;;;;11.08;100.00;102662.84;5114407;28;20072;-69
2022/08/08 01:39:09;;;;;;;6.32;3.30;;;;;;;11.04;100.00;102657.81;5112561;28;20023;-69
2022/08/08 01:41:52;;;;;;;4.78;3.25;;;;;;;11.03;100.00;102662.31;5082684;28;20429;-69
2022/08/08 01:44:38;;;;;;;6.70;3.45;;;;;;;11.04;100.00;102663.16;5114081;28;20100;-73
2022/08/08 01:47:33;;;;;;;4.65;2.78;;;;;;;11.05;100.00;102656.88;5114598;28;20080;-70
2022/08/08 01:50:04;;;;;;;7.30;3.70;;;;;;;11.06;100.00;102658.56;5058718;28;20391;-70
2022/08/08 01:52:54;;;;;;;4.05;2.97;;;;;;;11.07;100.00;102665.63;5113839;27;20528;-70
2022/08/08 01:55:35;;;;;;;6.40;3.85;;;;;;;11.08;100.00;102659.34;5114154;28;20078;-74
2022/08/08 01:58:24;;;;;;;;;;;;;;;11.11;100.00;102664.47;5114780;28;20036;-69
2022/08/08 02:01:08;;;;;;;4.50;3.40;;;;;;;11.11;100.00;102664.47;5093754;28;20357;-70
2022/08/08 02:03:53;;;;;;;10.25;4.03;;;;;;;11.12;100.00;102666.16;5114103;28;20499;-69
2022/08/08 02:06:49;;;;;;;5.57;3.88;;;;;;;11.07;100.00;102666.47;5113885;28;20555;-69
2022/08/08 02:09:27;;;;;;;4.63;3.33;;;;;;;11.01;100.00;102679.34;5113585;28;20608;-69
2022/08/08 02:11:53;;;;;;;4.55;3.80;;;;;;;11.00;100.00;102680.28;5113802;28;20068;-69
2022/08/08 02:14:26;;;;;;;5.10;3.47;;;;;;;11.01;100.00;102682.84;5112633;28;20354;-69
2022/08/08 02:17:19;;;;;;;5.53;3.38;;;;;;;11.00;100.00;102688.25;5114283;28;20062;-69
2022/08/08 02:19:52;;;;;;;4.55;3.22;;;;;;;10.97;100.00;102683.13;5113958;28;20366;-69
2022/08/08 02:22:32;;;;;;;4.70;2.88;;;;;;;10.93;100.00;102678.00;5112405;28;20131;-69
2022/08/08 02:25:30;;;;;;;6.50;4.20;;;;;;;11.00;100.00;102677.63;5114170;28;20053;-69
2022/08/08 02:28:13;;;;;;;8.20;4.18;;;;;;;11.00;100.00;102673.16;5113858;28;20114;-70
2022/08/08 02:31:01;;;;;;;7.50;3.30;;;;;;;10.97;100.00;102680.47;5113637;28;20136;-69
2022/08/08 02:34:09;;;;;;;5.65;3.42;;;;;;;11.00;100.00;102678.50;5113564;28;20027;-70
2022/08/08 02:37:00;;;;;;;8.75;3.75;;;;;;;11.01;100.00;102680.19;5113958;28;20054;-70
2022/08/08 02:39:38;;;;;;;;;;;;;;;11.03;100.00;102674.75;5114528;28;20027;-73
2022/08/08 02:42:44;;;;;;;4.53;2.95;;;;;;;10.98;100.00;102680.38;5113387;28;19911;-68
2022/08/08 02:45:37;;;;;;;7.15;3.13;;;;;;;10.93;100.00;102680.66;5104704;28;20118;-69
2022/08/08 02:48:14;;;;;;;5.00;3.70;;;;;;;10.94;100.00;102685.06;5112920;28;20473;-69
2022/08/08 02:51:14;;;;;;;5.65;3.92;;;;;;;10.94;100.00;102682.38;5112469;28;20031;-69
2022/08/08 02:54:07;;;;;;;3.60;3.00;;;;;;;10.91;100.00;102685.25;5113514;28;20024;-71
2022/08/08 02:56:41;;;;;;;4.88;3.30;;;;;;;10.88;100.00;102673.91;5113565;28;20106;-69
2022/08/08 02:59:28;;;;;;;4.85;3.60;;;;;;;10.90;100.00;102682.69;5113383;28;20034;-69
2022/08/08 03:02:17;;;;;;;5.25;3.90;;;;;;;10.92;100.00;102683.44;5112300;28;20036;-70
2022/08/08 03:05:07;;;;;;;4.63;3.53;;;;;;;10.93;100.00;102685.16;5113447;28;20023;-70
2022/08/08 03:08:17;;;;;;;6.05;3.00;;;;;;;10.90;100.00;102694.19;5113387;28;20027;-70
2022/08/08 03:11:14;;;;;;;5.40;3.83;;;;;;;10.95;100.00;102691.22;5097164;28;20092;-70
2022/08/08 03:14:10;;;;;;;4.97;3.40;;;;;;;10.91;100.00;102693.22;5113157;28;20522;-70
2022/08/08 03:16:44;;;;;;;5.60;3.42;;;;;;;10.89;100.00;102686.28;5113077;28;20038;-70
2022/08/08 03:19:57;;;;;;;5.03;3.65;;;;;;;10.87;100.00;102702.34;5113021;28;20043;-70
2022/08/08 03:22:22;;;;;;;3.35;3.05;;;;;;;10.86;100.00;102702.47;5107181;28;20039;-70
2022/08/08 03:24:50;;;;;;;4.47;2.90;;;;;;;10.81;100.00;102691.22;5113004;28;20027;-70
2022/08/08 03:27:25;;;;;;;3.88;3.10;;;;;;;10.77;100.00;102687.91;5113275;28;20023;-70
2022/08/08 03:29:54;;;;;;;4.85;3.70;;;;;;;10.81;100.00;102696.53;5112582;28;20039;-70
2022/08/08 03:35:05;;;;;;;3.13;2.83;;;;;;;10.78;100.00;102694.94;5112991;28;20500;-70
2022/08/08 03:37:33;;;;;;;3.40;2.78;;;;;;;10.75;100.00;102692.47;5112906;28;20031;-70
2022/08/08 03:40:03;;;;;;;3.75;2.75;;;;;;;10.73;100.00;102697.03;5112943;28;20112;-70
2022/08/08 03:42:28;;;;;;;7.20;3.53;;;;;;;10.73;100.00;102697.91;5112755;28;20035;-70
2022/08/08 03:44:54;;;;;;;4.93;3.03;;;;;;;10.73;100.00;102689.03;5113038;28;20465;-70
2022/08/08 03:47:24;;;;;;;4.85;3.08;;;;;;;10.74;100.00;102694.25;5113403;28;20027;-69
2022/08/08 03:49:50;;;;;;;4.53;3.42;;;;;;;10.75;100.00;102697.81;5113543;28;20024;-69
2022/08/08 03:52:16;;;;;;;6.35;3.45;;;;;;;10.74;100.00;102699.59;5112706;28;20028;-69
2022/08/08 03:54:43;;;;;;;6.65;3.65;;;;;;;10.74;100.00;102698.75;5112476;28;20032;-70
2022/08/08 03:57:13;;;;;;;3.10;2.67;;;;;;;10.74;100.00;102694.25;5111450;28;20491;-70
2022/08/08 03:59:39;;;;;;;3.97;3.00;;;;;;;10.72;100.00;102698.00;5112391;28;20429;-70
2022/08/08 04:02:15;;;;;;;2.95;2.60;;;;;;;10.71;100.00;102712.25;5116158;28;20116;-70
2022/08/08 04:04:40;;;;;;;4.57;3.05;;;;;;;10.71;100.00;102714.91;5116655;27;20365;-70
2022/08/08 04:07:06;;;;;;;4.13;3.50;;;;;;;10.73;100.00;102715.66;5116310;28;20119;-70
2022/08/08 04:09:31;;;;;;;4.47;3.22;;;;;;;10.73;100.00;102721.84;5115867;28;20039;-70
2022/08/08 04:11:59;;;;;;;4.85;2.75;;;;;;;10.70;100.00;102718.50;5115300;28;20043;-69
2022/08/08 04:14:24;;;;;;;8.23;3.45;;;;;;;10.67;100.00;102718.69;5116287;28;20028;-70
2022/08/08 04:16:50;;;;;;;3.08;2.55;;;;;;;10.69;100.00;102716.78;5115712;28;20096;-70
2022/08/08 04:19:15;;;;;;;3.38;3.00;;;;;;;10.69;100.00;102727.44;5115742;28;20051;-70
2022/08/08 04:21:41;;;;;;;4.28;3.22;;;;;;;10.73;100.00;102728.97;5116436;28;20024;-71
2022/08/08 04:24:06;;;;;;;4.68;2.97;;;;;;;10.77;100.00;102728.69;5116021;28;20031;-70
2022/08/08 04:26:31;;;;;;;4.47;2.85;;;;;;;10.77;100.00;102728.69;5115754;28;20119;-69
2022/08/08 04:28:57;;;;;;;4.85;2.85;;;;;;;10.78;100.00;102737.56;5115750;28;20081;-70
2022/08/08 04:31:22;;;;;;;3.10;2.90;;;;;;;10.79;100.00;102735.72;5115605;28;20107;-70
2022/08/08 04:33:48;;;;;;;5.55;3.55;;;;;;;10.83;100.00;102737.25;5115684;28;20035;-70
2022/08/08 04:36:13;;;;;;;8.07;3.47;;;;;;;10.87;100.00;102738.78;5114625;28;20484;-70
2022/08/08 04:38:38;;;;;;;4.72;3.00;;;;;;;10.89;100.00;102732.41;5115436;28;20031;-70
2022/08/08 04:41:04;;;;;;;4.20;3.10;;;;;;;10.92;100.00;102744.69;5115553;28;20118;-70
2022/08/08 04:43:29;;;;;;;3.95;2.97;;;;;;;10.94;100.00;102750.75;5115464;28;20038;-70
2022/08/08 04:45:55;;;;;;;6.15;3.40;;;;;;;10.95;100.00;102741.81;5115471;28;20063;-70
2022/08/08 04:48:20;;;;;;;3.63;3.00;;;;;;;11.01;100.00;102738.78;5115116;28;20047;-70
2022/08/08 04:50:46;;;;;;;4.45;3.15;;;;;;;11.09;100.00;102744.50;5115148;27;20096;-72
2022/08/08 04:53:12;;;;;;;10.77;4.32;;;;;;;11.21;100.00;102742.00;5115385;28;20065;-70
2022/08/08 04:55:39;;;;;;;8.55;3.63;;;;;;;11.27;100.00;102739.81;5115282;28;20027;-70
2022/08/08 04:58:05;;;;;;;3.88;3.05;;;;;;;11.29;100.00;102745.03;5115305;27;20036;-70
2022/08/08 05:00:31;;;;;;;4.47;3.03;;;;;;;11.33;100.00;102741.25;5115141;28;20436;-70
2022/08/08 05:02:56;;;;;;;3.88;3.08;;;;;;;11.37;100.00;102747.22;5115030;28;20107;-71
2022/08/08 05:05:22;;;;;;;5.70;3.50;;;;;;;11.41;100.00;102741.59;5114839;28;20031;-70
2022/08/08 05:07:47;;;;;;;5.93;3.47;;;;;;;11.42;100.00;102740.66;5115195;28;20055;-71
2022/08/08 05:10:13;;;;;;;4.05;3.30;;;;;;;11.44;100.00;102738.72;5114942;28;20027;-70
2022/08/08 05:12:39;;;;;;;4.82;3.42;;;;;;;11.47;100.00;102745.69;5114040;28;20039;-72
2022/08/08 05:15:05;;;;;;;6.15;3.53;;;;;;;11.51;100.00;102749.88;5114592;28;20042;-70
2022/08/08 05:17:30;;;;;;;4.95;3.38;;;;;;;11.55;100.00;102747.84;5113546;28;20126;-70
2022/08/08 05:19:55;;;;;;;3.78;3.20;;;;;;;11.59;100.00;102747.56;5113399;28;20102;-70
2022/08/08 05:22:21;;;;;;;6.20;3.88;;;;;;;11.64;100.00;102755.25;5114757;27;20031;-70
2022/08/08 05:24:46;;;;;;;3.40;3.10;;;;;;;11.69;100.00;102749.63;5114839;27;20356;-70
2022/08/08 05:27:12;;;;;;;6.88;3.50;;;;;;;11.74;100.00;102756.38;5114592;28;20028;-70
2022/08/08 05:29:37;;;;;;;7.93;3.85;;;;;;;11.82;100.00;102748.72;5115200;28;20031;-71
2022/08/08 05:32:04;;;;;;;5.72;3.58;;;;;;;11.89;100.00;102751.84;5114293;28;20028;-70
2022/08/08 05:34:35;;;;;;;6.43;3.45;;;;;;;11.96;100.00;102753.19;5114942;28;20042;-69
2022/08/08 05:37:03;;;;;;;5.00;3.20;;;;;;;12.03;100.00;102755.44;5115277;28;20042;-70
2022/08/08 05:39:29;;;;;;;8.57;4.00;;;;;;;12.09;100.00;102755.91;5114586;28;20063;-70
2022/08/08 05:41:57;;;;;;;8.70;4.22;;;;;;;12.18;100.00;102757.06;5114273;28;20446;-70
2022/08/08 05:44:25;;;;;;;6.18;3.90;;;;;;;12.27;100.00;102760.94;5114311;28;20038;-69
2022/08/08 05:46:57;;;;;;;8.55;3.83;;;;;;;12.33;100.00;102760.53;5114045;28;20389;-70
2022/08/08 05:49:23;;;;;;;10.38;3.88;;;;;;;12.42;100.00;102765.25;5114177;28;20126;-69
2022/08/08 05:51:48;;;;;;;7.93;3.83;;;;;;;12.50;100.00;102760.25;5114295;28;20107;-70
2022/08/08 05:54:15;;;;;;;5.93;3.53;;;;;;;12.59;100.00;102758.75;5114109;28;20031;-70
2022/08/08 05:56:43;;;;;;;6.38;3.80;;;;;;;12.68;100.00;102759.94;5114139;28;20024;-68
2022/08/08 05:59:17;;;;;;;5.55;3.95;;;;;;;12.81;100.00;102763.47;5113822;28;20396;-70
2022/08/08 06:01:55;;;;;;;7.90;3.97;;;;;;;12.92;100.00;102760.03;5114596;28;20027;-70
2022/08/08 06:04:28;;;;;;;8.57;3.40;;;;;;;13.07;100.00;102760.78;5114299;28;20493;-71
2022/08/08 06:06:56;;;;;;;9.13;4.28;;;;;;;13.21;100.00;102759.78;5114024;28;20031;-71
2022/08/08 06:09:27;;;;;;;7.25;3.90;;;;;;;13.36;100.00;102771.22;5113714;28;20027;-70
2022/08/08 06:11:58;;;;;;;9.48;5.05;;;;;;;13.54;100.00;102769.06;5114005;28;20028;-71
2022/08/08 06:14:25;;;;;;;9.32;4.43;;;;;;;13.77;100.00;102769.22;5113134;28;20031;-71
2022/08/08 06:16:52;;;;;;;13.27;4.93;;;;;;;13.95;100.00;102767.00;5113870;28;20487;-71
2022/08/08 06:19:18;;;;;;;10.70;4.43;;;;;;;14.16;100.00;102770.72;5113621;28;20085;-71
2022/08/08 06:21:47;;;;;;;7.75;4.18;;;;;;;14.38;100.00;102782.50;5113446;28;20031;-70
2022/08/08 06:24:13;;;;;;;9.45;4.25;;;;;;;14.57;100.00;102781.91;5113478;28;20028;-70
2022/08/08 06:26:43;;;;;;;9.57;4.03;;;;;;;14.67;100.00;102785.63;5114162;28;20054;-69
2022/08/08 06:29:17;;;;;;;6.90;3.83;;;;;;;14.78;100.00;102788.34;5113935;28;20097;-70
2022/08/08 06:31:44;;;;;;;9.48;3.80;;;;;;;14.91;100.00;102782.03;5113927;28;20024;-69
2022/08/08 06:34:17;;;;;;;7.15;3.80;;;;;;;15.03;100.00;102781.03;5113591;28;20115;-69
2022/08/08 06:36:44;;;;;;;7.43;3.63;;;;;;;15.15;100.00;102787.25;5113861;28;20035;-69
2022/08/08 06:39:13;;;;;;;6.05;3.10;;;;;;;15.29;100.00;102791.56;5113573;28;20053;-73
2022/08/08 06:42:03;;;;;;;5.47;2.95;;;;;;;15.44;100.00;102790.31;5112286;28;20362;-73
2022/08/08 06:44:29;;;;;;;4.32;2.97;;;;;;;15.58;100.00;102788.34;5113455;28;20034;-73
2022/08/08 06:46:58;;;;;;;11.93;3.60;;;;;;;15.73;100.00;102786.22;5113925;28;20122;-72
2022/08/08 06:49:23;;;;;;;10.45;3.17;;;;;;;15.89;100.00;102784.03;5113413;28;20027;-73
2022/08/08 06:51:49;;;;;;;10.68;3.30;;;;;;;16.02;100.00;102792.78;5113649;28;20350;-73
2022/08/08 06:54:17;;;;;;;16.15;3.97;;;;;;;16.14;100.00;102790.06;5114081;28;20130;-73
2022/08/08 06:56:43;;;;;;;9.00;3.40;;;;;;;16.22;100.00;102788.41;5113026;28;20426;-76
2022/08/08 06:59:09;;;;;;;7.43;3.15;;;;;;;16.32;100.00;102783.13;5113557;28;20031;-77
2022/08/08 07:01:51;;;;;;;7.22;2.72;;;;;;;16.43;100.00;102786.72;5113403;28;20035;-77
2022/08/08 07:04:42;;;;;;;9.13;2.65;;;;;;;16.56;100.00;102790.94;5113791;28;20035;-76
2022/08/08 07:07:09;;;;;;;7.38;2.35;;;;;;;16.71;99.98;102794.13;5111890;28;20381;-76
2022/08/08 07:09:37;;;;;;;5.85;2.20;;;;;;;16.80;94.61;102786.28;5113209;28;20100;-75
2022/08/08 07:12:07;;;;;;;5.07;2.00;;;;;;;16.92;94.13;102782.53;5113702;28;20038;-73
2022/08/08 07:14:43;;;;;;;4.07;1.95;;;;;;;17.05;94.29;102798.47;5113672;28;20326;-76
2022/08/08 07:17:16;;;;;;;6.10;2.53;;;;;;;17.08;93.45;102806.25;5113363;28;20380;-75
2022/08/08 07:19:49;;;;;;;12.05;2.30;;;;;;;17.14;93.23;102800.34;5112972;28;20053;-77
2022/08/08 07:22:22;;;;;;;6.03;2.40;;;;;;;17.25;93.57;102796.69;5113548;28;20024;-76
2022/08/08 07:24:52;;;;;;;7.80;2.45;;;;;;;17.34;92.61;102798.56;5113879;28;20030;-75
2022/08/08 07:27:22;;;;;;;4.50;2.33;;;;;;;17.50;92.36;102797.22;5113546;28;20035;-76
2022/08/08 07:29:47;;;;;;;6.95;2.28;;;;;;;17.65;90.94;102798.53;5113086;28;20052;-78
2022/08/08 07:32:14;;;;;;;4.90;2.00;;;;;;;17.83;90.82;102801.38;5113142;28;20122;-74
2022/08/08 07:34:40;;;;;;;4.80;2.08;;;;;;;18.03;90.97;102801.44;5113134;28;20077;-75
2022/08/08 07:37:05;;;;;;;5.03;1.95;;;;;;;18.19;87.03;102799.03;5116807;28;20425;-76
2022/08/08 07:39:31;;;;;;;6.25;2.20;;;;;;;18.30;84.58;102808.81;5117240;28;20586;-76
2022/08/08 07:42:00;;;;;;;5.18;1.83;;;;;;;18.51;84.51;102808.66;5116739;28;20038;-76
2022/08/08 07:44:27;;;;;;;8.52;2.08;;;;;;;18.73;82.77;102814.72;5117112;27;20032;-75
2022/08/08 07:46:53;;;;;;;5.07;1.80;;;;;;;18.81;82.91;102817.53;5117136;28;20031;-76
2022/08/08 07:49:18;;;;;;;5.28;1.85;;;;;;;18.85;81.65;102824.34;5117234;28;20111;-75
2022/08/08 07:51:44;;;;;;;9.15;1.85;;;;;;;18.82;81.81;102819.25;5117358;28;20031;-73
2022/08/08 07:54:18;;;;;;;10.18;2.25;;;;;;;18.77;82.67;102818.84;5116955;28;20469;-77
2022/08/08 07:57:08;;;;;;;12.50;2.45;;;;;;;18.75;83.89;102818.13;5117009;28;20032;-77
2022/08/08 07:59:40;;;;;;;11.88;2.50;;;;;;;18.76;84.87;102826.06;5116291;28;20039;-78
2022/08/08 08:02:07;;;;;;;3.97;2.10;;;;;;;18.99;82.75;102834.72;5116833;28;20440;-79
2022/08/08 08:04:34;;;;;;;6.93;1.77;;;;;;;19.44;81.22;102827.72;5116085;28;20474;-77
2022/08/08 08:07:00;;;;;;;9.90;2.20;;;;;;;19.86;75.93;102829.06;5116998;28;20108;-77
2022/08/08 08:09:34;;;;;;;8.80;2.17;;;;;;;20.03;75.46;102825.56;5116584;28;20067;-77
2022/08/08 08:11:59;;;;;;;3.28;1.85;;;;;;;20.12;75.47;102831.84;5116674;28;20035;-75
2022/08/08 08:14:52;;;;;;;4.75;1.85;;;;;;;20.00;74.71;102833.09;5116734;28;20034;-70
2022/08/08 08:17:19;;;;;;;5.50;1.88;;;;;;;19.81;75.41;102844.88;5115342;28;20024;-70
2022/08/08 08:19:47;;;;;;;4.28;1.95;;;;;;;19.53;76.74;102842.16;5115694;28;20052;-70
2022/08/08 08:22:14;;;;;;;4.97;1.83;;;;;;;19.21;76.46;102840.72;5115965;28;20024;-77
2022/08/08 08:24:40;;;;;;;3.80;1.63;;;;;;;18.97;78.06;102844.81;5116504;28;20032;-75
2022/08/08 08:27:06;;;;;;;4.35;2.00;;;;;;;18.76;79.86;102844.94;5116143;28;20047;-77
2022/08/08 08:29:31;;;;;;;3.72;1.92;;;;;;;18.76;81.83;102846.78;5116093;28;20039;-78
2022/08/08 08:31:57;;;;;;;4.03;1.60;;;;;;;18.82;82.40;102847.06;5116503;28;20023;-75
2022/08/08 08:34:22;;;;;;;7.55;1.80;;;;;;;18.96;82.15;102850.31;5115932;28;20093;-75
2022/08/08 08:36:47;;;;;;;3.97;1.73;;;;;;;19.09;80.87;102855.41;5115849;28;20468;-74
2022/08/08 08:39:13;;;;;;;6.35;2.30;;;;;;;19.19;80.04;102859.75;5115581;28;20457;-75
2022/08/08 08:41:41;;;;;;;4.22;1.98;;;;;;;19.36;81.70;102849.19;5116202;28;20391;-77
2022/08/08 08:44:07;;;;;;;2.58;1.48;;;;;;;20.39;78.67;102849.00;5115307;28;20028;-76
2022/08/08 08:46:34;;;;;;;6.25;1.60;;;;;;;21.72;72.42;102849.69;5114655;28;20028;-74
2022/08/08 08:48:59;;;;;;;4.82;1.48;;;;;;;22.65;65.04;102845.09;5114541;28;20032;-81
2022/08/08 08:51:27;;;;;;;3.42;1.50;;;;;;;23.34;59.33;102853.59;5115862;28;20035;-80
2022/08/08 08:53:53;;;;;;;5.30;1.70;;;;;;;23.99;57.89;102853.47;5114140;28;20027;-80
2022/08/08 08:56:20;;;;;;;3.78;1.35;;;;;;;24.42;55.50;102851.97;5115380;28;20027;-78
2022/08/08 08:58:48;;;;;;;4.15;1.40;;;;;;;25.00;53.63;102843.25;5115287;28;20023;-80
2022/08/08 09:01:16;;;;;;;5.80;1.77;;;;;;;25.39;51.69;102849.47;5115351;28;20054;-77
2022/08/08 09:03:46;;;;;;;4.35;1.80;;;;;;;25.55;52.62;102843.81;5115207;28;20074;-78
2022/08/08 09:06:17;;;;;;;3.10;1.50;;;;;;;26.08;49.54;102840.00;5115279;28;20024;-77
2022/08/08 09:08:45;;;;;;;4.47;1.42;;;;;;;26.34;46.36;102840.25;5115005;28;20504;-75
2022/08/08 09:11:14;;;;;;;3.17;1.30;;;;;;;26.58;45.25;102846.34;5115056;28;20039;-76
2022/08/08 09:13:42;;;;;;;4.65;1.65;;;;;;;26.19;46.42;102840.34;5114614;28;20029;-78
2022/08/08 09:16:07;;;;;;;4.00;1.50;;;;;;;26.24;45.90;102839.75;5115038;28;20046;-77
2022/08/08 09:18:33;;;;;;;3.10;1.30;;;;;;;27.45;42.88;102849.66;5114900;28;20036;-77
2022/08/08 09:21:00;;;;;;;5.30;1.48;;;;;;;28.46;40.94;102848.00;5115958;28;20052;-78
2022/08/08 09:23:28;;;;;;;2.83;1.40;;;;;;;28.99;37.81;102847.09;5115490;28;20122;-80
2022/08/08 09:26:08;;;;;;;6.20;1.52;;;;;;;29.08;38.71;102842.22;5115907;28;20031;-78
2022/08/08 09:28:39;;;;;;;2.38;1.17;;;;;;;30.09;36.57;102848.94;5115470;28;20031;-76
2022/08/08 09:31:15;;;;;;;4.68;1.65;;;;;;;30.73;36.16;102840.63;5115182;28;20365;-75
2022/08/08 09:33:50;;;;;;;3.78;1.40;;;;;;;31.28;34.27;102837.06;5114786;28;20070;-80
2022/08/08 09:36:22;;;;;;;3.42;1.48;;;;;;;31.62;33.67;102841.09;5114730;28;20054;-76
2022/08/08 09:38:58;;;;;;;2.35;1.38;;;;;;;31.47;32.31;102841.47;5115032;27;20177;-75
2022/08/08 09:41:37;;;;;;;2.08;1.17;;;;;;;31.45;32.70;102842.78;5113294;28;20472;-74
2022/08/08 09:44:31;;;;;;;3.28;1.23;;;;;;;31.22;32.84;102846.25;5114516;28;20031;-75
2022/08/08 09:46:59;;;;;;;2.20;1.00;;;;;;;30.61;33.15;102848.75;5106572;28;20142;-78
2022/08/08 09:49:25;;;;;;;4.50;1.27;;;;;;;30.40;33.35;102852.72;5114478;28;20092;-76
2022/08/08 09:51:53;;;;;;;2.58;1.38;;;;;;;28.99;34.78;102852.56;5114343;28;20035;-76
2022/08/08 09:54:29;;;;;;;2.55;1.30;;;;;;;27.52;39.21;102861.47;5114259;28;20036;-78
2022/08/08 09:56:54;;;;;;;2.83;1.15;;;;;;;25.92;41.51;102849.28;5114229;28;20034;-78
2022/08/08 09:59:25;;;;;;;6.45;1.20;;;;;;;25.04;43.17;102852.75;5113776;27;20028;-76
2022/08/08 10:01:52;;;;;;;4.18;1.20;;;;;;;26.75;40.38;102846.91;5114210;28;20084;-76
2022/08/08 10:04:21;;;;;;;3.90;1.38;;;;;;;28.68;38.13;102854.13;5114124;28;20097;-76
2022/08/08 10:06:47;;;;;;;2.92;1.20;;;;;;;29.39;36.09;102841.50;5113961;28;20031;-75
2022/08/08 10:09:13;;;;;;;3.45;1.40;;;;;;;28.25;37.15;102843.56;5114608;28;20027;-77
2022/08/08 10:11:46;;;;;;;3.10;1.25;;;;;;;28.20;37.18;102857.03;5113678;28;20032;-77
2022/08/08 10:14:12;;;;;;;3.03;1.30;;;;;;;28.55;36.96;102849.47;5114540;28;20114;-75
2022/08/08 10:16:40;;;;;;;2.47;1.23;;;;;;;29.55;35.47;102848.41;5114107;28;20067;-76
2022/08/08 10:19:10;;;;;;;4.20;1.20;;;;;;;30.26;33.32;102849.22;5113565;28;20470;-75
2022/08/08 10:21:37;;;;;;;3.63;1.10;;;;;;;30.77;32.60;102848.19;5114516;28;20027;-78
2022/08/08 10:24:08;;;;;;;5.57;1.65;;;;;;;31.56;31.60;102832.91;5113853;28;20027;-75
2022/08/08 10:26:46;;;;;;;6.07;1.20;;;;;;;31.31;30.91;102847.59;5113555;28;20020;-78
2022/08/08 10:29:13;;;;;;;3.80;1.40;;;;;;;31.63;30.40;102845.53;5114051;28;20093;-75
2022/08/08 10:34:26;;;;;;;3.47;1.50;;;;;;;31.85;31.45;102847.75;5114069;28;20050;-75
2022/08/08 10:36:52;;;;;;;3.15;1.20;;;;;;;31.20;30.84;102848.38;5114088;28;20039;-76
2022/08/08 10:39:20;;;;;;;2.60;1.13;;;;;;;30.76;31.49;102851.16;5113662;28;20024;-70
2022/08/08 10:41:57;;;;;;;2.67;1.17;;;;;;;29.73;33.01;102844.94;5113531;28;20036;-73
2022/08/08 10:44:33;;;;;;;2.40;1.00;;;;;;;29.46;33.78;102857.94;5113403;28;20038;-73
2022/08/08 10:47:11;;;;;;;2.95;1.13;;;;;;;30.04;33.72;102844.13;5113516;28;20032;-71
2022/08/08 10:49:36;;;;;;;3.92;1.20;;;;;;;30.75;31.99;102841.22;5113408;28;20057;-71
2022/08/08 10:52:03;;;;;;;3.58;1.05;;;;;;;31.23;32.39;102846.03;5113287;28;20031;-72
2022/08/08 10:54:28;;;;;;;3.20;1.30;;;;;;;31.73;29.23;102847.69;5113933;28;20469;-73
2022/08/08 10:57:03;;;;;;;1.88;1.05;;;;;;;31.89;30.34;102842.59;5113313;28;20059;-73
2022/08/08 10:59:29;;;;;;;4.50;1.10;;;;;;;31.15;29.48;102842.75;5113725;28;20034;-72
2022/08/08 11:01:54;;;;;;;3.42;1.10;;;;;;;31.65;30.25;102845.28;5113806;28;20110;-72
2022/08/08 11:04:20;;;;;;;1.80;0.98;;;;;;;31.89;29.82;102854.47;5113327;28;20329;-73
2022/08/08 11:06:45;;;;;;;3.50;1.02;;;;;;;31.37;29.07;102835.69;5113364;28;20077;-73
2022/08/08 11:09:12;;;;;;;2.13;0.95;;;;;;;31.09;29.81;102830.75;5113811;28;20377;-72
2022/08/08 11:11:43;;;;;;;2.25;0.90;;;;;;;30.86;30.64;102832.25;5116558;28;20111;-72
2022/08/08 11:14:11;;;;;;;6.65;1.35;;;;;;;30.75;31.51;102830.25;5118096;28;20039;-72
2022/08/08 11:16:44;;;;;;;2.08;1.00;;;;;;;30.45;31.78;102828.19;5117713;28;20125;-72
2022/08/08 11:19:10;;;;;;;1.83;1.00;;;;;;;30.92;30.63;102834.06;5115701;28;20130;-73
2022/08/08 11:21:40;;;;;;;2.97;1.27;;;;;;;30.93;30.35;102829.41;5116105;28;20083;-72
2022/08/08 11:24:09;;;;;;;6.28;1.20;;;;;;;31.57;31.21;102832.69;5117383;28;20142;-72
2022/08/08 11:26:37;;;;;;;6.90;1.05;;;;;;;31.77;29.63;102829.66;5117309;28;20077;-72
2022/08/08 11:29:05;;;;;;;3.65;1.23;;;;;;;31.42;29.84;102832.22;5117386;28;20150;-72
2022/08/08 11:31:45;;;;;;;2.40;1.10;;;;;;;31.86;29.07;102834.81;5117308;28;20032;-72
2022/08/08 11:34:11;;;;;;;3.28;1.00;;;;;;;32.03;28.71;102835.00;5117451;28;20039;-72
2022/08/08 11:36:37;;;;;;;2.53;1.20;;;;;;;31.35;29.42;102832.34;5115719;28;20453;-72
2022/08/08 11:39:05;;;;;;;1.42;0.95;;;;;;;31.60;28.38;102831.38;5116827;28;20077;-73
2022/08/08 11:41:30;;;;;;;1.70;0.93;;;;;;;31.30;28.71;102829.44;5117029;28;20028;-73
2022/08/08 11:43:56;;;;;;;2.20;1.10;;;;;;;30.74;30.07;102823.09;5116753;27;20035;-73
2022/08/08 11:46:24;;;;;;;6.63;1.20;;;;;;;31.07;30.44;102819.16;5116785;28;20106;-72
2022/08/08 11:48:50;;;;;;;2.25;0.98;;;;;;;31.55;28.56;102820.22;5116727;28;20032;-72
2022/08/08 11:51:18;;;;;;;1.55;0.90;;;;;;;31.70;29.80;102836.34;5116513;28;20160;-71
2022/08/08 11:53:44;;;;;;;2.05;1.05;;;;;;;31.90;28.83;102820.34;5116657;28;20487;-71
2022/08/08 11:56:20;;;;;;;1.77;0.90;;;;;;;32.04;28.47;102818.25;5116344;28;20051;-72